createdAt,value
2018-04-29T00:01:11.211Z,100684.69
2018-04-29T00:06:12.511Z,100684.55
2018-04-29T00:11:13.872Z,100677.91
2018-04-29T00:16:15.929Z,100669.31
2018-04-29T00:21:17.239Z,100662.84
2018-04-29T00:26:18.558Z,100667.23
2018-04-29T00:31:20.605Z,100661.68
2018-04-29T00:36:21.931Z,100659.03
2018-04-29T00:41:23.265Z,100654.33
2018-04-29T00:46:24.575Z,100666.50
2018-04-29T00:51:44.113Z,100662.80
2018-04-29T00:56:45.406Z,100663.23
2018-04-29T01:01:46.713Z,100671.70
2018-04-29T01:06:48.039Z,100677.23
2018-04-29T01:11:49.337Z,100684.67
2018-04-29T01:16:50.646Z,100686.86
2018-04-29T01:21:51.953Z,100678.50
2018-04-29T01:26:53.282Z,100671.45
2018-04-29T01:31:54.799Z,100659.66
2018-04-29T01:36:56.105Z,100665.17
2018-04-29T01:41:57.441Z,100662.62
2018-04-29T01:46:58.766Z,100663.16
2018-04-29T01:52:00.056Z,100663.19
2018-04-29T01:57:01.375Z,100676.07
2018-04-29T02:02:02.714Z,100673.97
2018-04-29T02:07:04.798Z,100670.63
2018-04-29T02:12:06.865Z,100669.36
2018-04-29T02:17:08.158Z,100669.99
2018-04-29T02:22:09.462Z,100660.02
2018-04-29T02:27:10.777Z,100656.58
2018-04-29T02:32:12.838Z,100654.28
2018-04-29T02:37:14.201Z,100660.80
2018-04-29T02:42:15.506Z,100660.81
2018-04-29T02:47:16.798Z,100651.38
2018-04-29T02:52:18.098Z,100653.38
2018-04-29T02:57:19.389Z,100655.83
2018-04-29T03:02:20.708Z,100650.59
2018-04-29T03:07:22.212Z,100638.04
2018-04-29T03:12:23.681Z,100636.50
2018-04-29T03:17:25.138Z,100627.40
2018-04-29T03:22:26.657Z,100628.88
2018-04-29T03:27:28.171Z,100632.48
2018-04-29T03:32:29.653Z,100621.90
2018-04-29T03:37:30.955Z,100622.77
2018-04-29T03:42:32.273Z,100622.58
2018-04-29T03:47:33.629Z,100608.77
2018-04-29T03:52:34.934Z,100591.08
2018-04-29T03:57:55.374Z,100592.70
2018-04-29T04:03:14.994Z,100601.34
2018-04-29T04:08:17.018Z,100612.95
2018-04-29T04:13:18.527Z,100609.61
2018-04-29T04:18:19.841Z,100620.77
2018-04-29T04:23:21.142Z,100614.72
2018-04-29T04:28:22.446Z,100611.79
2018-04-29T04:33:23.762Z,100619.56
2018-04-29T04:38:25.805Z,100619.38
2018-04-29T04:43:27.100Z,100617.09
2018-04-29T04:48:28.437Z,100606.26
2018-04-29T04:53:30.468Z,100602.98
2018-04-29T04:58:31.765Z,100611.49
2018-04-29T05:03:33.072Z,100627.01
2018-04-29T05:08:34.389Z,100625.06
2018-04-29T05:13:35.708Z,100625.70
2018-04-29T05:18:37.012Z,100633.42
2018-04-29T05:23:38.330Z,100626.01
2018-04-29T05:28:39.645Z,100626.14
2018-04-29T05:33:40.946Z,100630.25
2018-04-29T05:38:42.243Z,100630.69
2018-04-29T05:43:43.541Z,100632.47
2018-04-29T05:48:44.851Z,100616.20
2018-04-29T05:53:46.169Z,100630.19
2018-04-29T05:58:47.486Z,100627.63
2018-04-29T06:03:49.617Z,100637.14
2018-04-29T06:08:51.698Z,100626.22
2018-04-29T06:13:52.989Z,100617.20
2018-04-29T06:18:54.303Z,100623.67
2018-04-29T06:23:55.618Z,100618.70
2018-04-29T06:28:56.917Z,100611.66
2018-04-29T06:33:58.225Z,100613.91
2018-04-29T06:38:59.525Z,100615.42
2018-04-29T06:44:00.839Z,100629.12
2018-04-29T06:49:02.930Z,100609.68
2018-04-29T06:54:04.337Z,100602.56
2018-04-29T06:59:06.436Z,100597.58
2018-04-29T07:04:07.757Z,100585.74
2018-04-29T07:09:09.077Z,100580.93
2018-04-29T07:14:10.507Z,100571.58
2018-04-29T07:19:11.774Z,100573.91
2018-04-29T07:24:13.089Z,100577.11
2018-04-29T07:29:15.139Z,100563.13
2018-04-29T07:34:16.470Z,100571.95
2018-04-29T07:39:17.764Z,100589.11
2018-04-29T07:44:19.827Z,100594.03
2018-04-29T07:49:21.222Z,100581.36
2018-04-29T07:54:22.779Z,100580.17
2018-04-29T07:59:24.149Z,100560.53
2018-04-29T08:04:25.562Z,100558.69
2018-04-29T08:09:26.890Z,100552.37
2018-04-29T08:14:28.214Z,100554.98
2018-04-29T08:19:30.552Z,100561.90
2018-04-29T08:24:32.192Z,100568.80
2018-04-29T08:29:33.689Z,100556.55
2018-04-29T08:34:35.011Z,100541.60
2018-04-29T08:39:37.118Z,100541.06
2018-04-29T08:44:39.202Z,100538.05
2018-04-29T08:49:40.519Z,100536.22
2018-04-29T08:54:42.578Z,100541.94
2018-04-29T08:59:43.912Z,100535.95
2018-04-29T09:04:46.019Z,100539.82
2018-04-29T09:09:48.078Z,100544.25
2018-04-29T09:14:49.406Z,100554.09
2018-04-29T09:19:50.726Z,100555.64
2018-04-29T09:24:52.202Z,100538.27
2018-04-29T09:29:53.611Z,100554.47
2018-04-29T09:34:54.929Z,100566.39
2018-04-29T09:39:56.219Z,100562.25
2018-04-29T09:44:57.555Z,100551.16
2018-04-29T09:49:59.636Z,100550.16
2018-04-29T09:55:00.947Z,100549.44
2018-04-29T10:00:03.055Z,100538.74
2018-04-29T10:10:34.402Z,100536.78
2018-04-29T10:15:36.634Z,100530.06
2018-04-29T10:20:37.934Z,100525.52
2018-04-29T10:25:39.239Z,100516.91
2018-04-29T10:30:40.578Z,100504.59
2018-04-29T10:35:41.981Z,100496.62
2018-04-29T10:40:43.394Z,100500.09
2018-04-29T10:45:44.707Z,100498.72
2018-04-29T10:50:46.050Z,100483.12
2018-04-29T10:55:48.111Z,100489.77
2018-04-29T11:00:49.428Z,100484.57
2018-04-29T11:05:50.752Z,100480.94
2018-04-29T11:10:52.127Z,100470.48
2018-04-29T11:15:54.234Z,100449.55
2018-04-29T11:20:57.725Z,100450.92
2018-04-29T11:25:59.825Z,100441.88
2018-04-29T11:31:02.063Z,100442.58
2018-04-29T11:36:03.990Z,100430.85
2018-04-29T11:41:05.366Z,100407.94
2018-04-29T11:46:06.775Z,100395.63
2018-04-29T11:51:08.830Z,100389.55
2018-04-29T11:56:10.156Z,100378.42
2018-04-29T12:01:11.522Z,100375.64
2018-04-29T12:06:13.691Z,100368.23
2018-04-29T12:11:15.248Z,100358.22
2018-04-29T12:16:17.524Z,100360.60
2018-04-29T12:21:18.845Z,100349.00
2018-04-29T12:26:20.961Z,100326.88
2018-04-29T12:31:22.280Z,100319.92
2018-04-29T12:36:23.630Z,100322.27
2018-04-29T12:41:24.946Z,100296.28
2018-04-29T12:46:27.026Z,100291.98
2018-04-29T12:51:28.365Z,100288.68
2018-04-29T12:56:29.707Z,100298.80
2018-04-29T13:01:31.031Z,100292.55
2018-04-29T13:06:32.360Z,100273.91
2018-04-29T13:11:33.677Z,100273.99
2018-04-29T13:16:34.998Z,100268.68
2018-04-29T13:21:36.381Z,100266.89
2018-04-29T13:26:38.458Z,100256.31
2018-04-29T13:31:39.776Z,100242.83
2018-04-29T13:36:41.825Z,100233.16
2018-04-29T13:41:43.169Z,100231.67
2018-04-29T13:46:45.314Z,100217.55
2018-04-29T13:51:46.621Z,100211.01
2018-04-29T13:56:47.949Z,100205.64
2018-04-29T14:01:49.297Z,100192.06
2018-04-29T14:06:50.610Z,100188.64
2018-04-29T14:11:51.951Z,100188.64
2018-04-29T14:16:53.299Z,100198.80
2018-04-29T14:21:54.632Z,100191.93
2018-04-29T14:26:55.982Z,100197.06
2018-04-29T14:31:58.111Z,100227.30
2018-04-29T14:36:59.439Z,100236.93
2018-04-29T14:42:00.761Z,100209.70
2018-04-29T14:47:02.125Z,100195.27
2018-04-29T14:52:03.441Z,100174.18
2018-04-29T14:57:05.522Z,100179.94
2018-04-29T15:02:06.864Z,100175.31
2018-04-29T15:07:08.196Z,100151.44
2018-04-29T15:12:09.525Z,100133.58
2018-04-29T15:17:11.598Z,100132.19
2018-04-29T15:22:12.942Z,100133.89
2018-04-29T15:27:14.253Z,100134.55
2018-04-29T15:32:15.578Z,100126.20
2018-04-29T15:37:16.915Z,100118.34
2018-04-29T15:42:18.337Z,100105.69
2018-04-29T15:47:19.654Z,100086.28
2018-04-29T15:52:21.009Z,100093.69
2018-04-29T15:57:22.341Z,100100.81
2018-04-29T16:02:24.386Z,100100.31
2018-04-29T16:07:25.719Z,100089.99
2018-04-29T16:12:27.034Z,100093.95
2018-04-29T16:17:29.092Z,100086.78
2018-04-29T16:22:30.423Z,100082.39
2018-04-29T16:27:31.736Z,100063.38
2018-04-29T16:32:33.070Z,100053.78
2018-04-29T16:37:34.409Z,100039.34
2018-04-29T16:42:35.835Z,100041.27
2018-04-29T16:47:37.143Z,100043.14
2018-04-29T16:52:38.462Z,100044.47
2018-04-29T16:57:40.538Z,100045.41
2018-04-29T17:02:41.862Z,100044.77
2018-04-29T17:07:43.194Z,100040.00
2018-04-29T17:12:44.545Z,100032.28
2018-04-29T17:17:46.628Z,100026.23
2018-04-29T17:22:48.058Z,100017.20
2018-04-29T17:27:49.450Z,100006.30
2018-04-29T17:32:50.830Z,99994.41
2018-04-29T17:37:52.179Z,99991.64
2018-04-29T17:42:53.557Z,99985.92
2018-04-29T17:47:54.884Z,99985.84
2018-04-29T17:52:56.214Z,99985.86
2018-04-29T17:57:57.550Z,99991.70
2018-04-29T18:08:32.826Z,99975.26
2018-04-29T18:13:34.132Z,99974.23
2018-04-29T18:18:35.446Z,99981.38
2018-04-29T18:23:36.779Z,99968.67
2018-04-29T18:28:38.886Z,99964.31
2018-04-29T18:33:40.945Z,99965.17
2018-04-29T18:38:42.270Z,99967.08
2018-04-29T18:43:44.387Z,99952.16
2018-04-29T18:48:45.923Z,99960.19
2018-04-29T18:53:47.261Z,99946.59
2018-04-29T18:58:48.665Z,99948.40
2018-04-29T19:03:50.751Z,99945.58
2018-04-29T19:08:52.074Z,99947.39
2018-04-29T19:13:54.121Z,99944.31
2018-04-29T19:18:55.445Z,99944.91
2018-04-29T19:23:56.785Z,99939.06
2018-04-29T19:28:58.101Z,99936.09
2018-04-29T19:34:06.461Z,99941.69
2018-04-29T19:39:07.806Z,99924.97
2018-04-29T19:44:09.112Z,99919.97
2018-04-29T19:49:10.423Z,99920.87
2018-04-29T19:54:11.754Z,99911.41
2018-04-29T19:59:13.813Z,99894.02
2018-04-29T20:04:15.130Z,99888.81
2018-04-29T20:09:16.441Z,99887.13
2018-04-29T20:14:18.482Z,99878.58
2018-04-29T20:19:19.789Z,99866.63
2018-04-29T20:24:21.094Z,99857.23
2018-04-29T20:29:22.410Z,99852.88
2018-04-29T20:34:24.473Z,99846.72
2018-04-29T20:39:25.784Z,99831.93
2018-04-29T20:44:27.085Z,99808.38
2018-04-29T20:49:28.389Z,99798.50
2018-04-29T20:54:30.428Z,99789.50
2018-04-29T20:59:31.798Z,99770.05
2018-04-29T21:04:33.164Z,99756.97
2018-04-29T21:09:34.441Z,99738.72
2018-04-29T21:14:35.745Z,99694.21
2018-04-29T21:19:37.807Z,99705.17
2018-04-29T21:24:39.127Z,99694.95
2018-04-29T21:29:40.441Z,99689.33
2018-04-29T21:34:42.470Z,99674.13
2018-04-29T21:39:43.775Z,99666.14
2018-04-29T21:44:45.074Z,99671.92
2018-04-29T21:49:46.387Z,99668.08
2018-04-29T21:54:47.705Z,99654.47
2018-04-29T21:59:49.789Z,99632.30
2018-04-29T22:04:51.101Z,99641.17
2018-04-29T22:09:53.214Z,99636.45
2018-04-29T22:14:54.530Z,99642.34
2018-04-29T22:19:55.845Z,99635.33
2018-04-29T22:24:57.158Z,99639.80
2018-04-29T22:29:59.197Z,99627.37
2018-04-29T22:35:00.502Z,99614.22
2018-04-29T22:40:01.832Z,99598.38
2018-04-29T22:45:03.152Z,99572.58
2018-04-29T22:50:04.450Z,99569.15
2018-04-29T22:55:05.762Z,99568.84
2018-04-29T23:00:07.107Z,99554.53
2018-04-29T23:05:09.165Z,99558.25
2018-04-29T23:10:10.477Z,99546.09
2018-04-29T23:15:11.781Z,99534.62
2018-04-29T23:20:13.920Z,99524.05
2018-04-29T23:25:15.170Z,99514.64
2018-04-29T23:30:16.478Z,99504.55
2018-04-29T23:35:18.531Z,99490.44
2018-04-29T23:40:19.841Z,99491.22
2018-04-29T23:45:21.137Z,99487.55
2018-04-29T23:50:22.446Z,99473.78
2018-04-29T23:55:24.538Z,99454.22
